createdAt,value
2023-04-18T00:00:43.019Z,0.41
2023-04-18T00:03:09.941Z,0.53
2023-04-18T00:05:37.064Z,0.51
2023-04-18T00:08:03.998Z,0.44
2023-04-18T00:10:30.984Z,0.59
2023-04-18T00:12:59.154Z,0.60
2023-04-18T00:15:26.182Z,0.54
2023-04-18T00:17:53.022Z,0.63
2023-04-18T00:20:20.062Z,0.51
2023-04-18T00:22:46.836Z,0.46
2023-04-18T00:25:13.729Z,0.42
2023-04-18T00:27:41.747Z,0.42
2023-04-18T00:30:11.004Z,0.40
2023-04-18T00:32:37.943Z,0.48
2023-04-18T00:35:05.800Z,0.44
2023-04-18T00:37:32.600Z,0.61
2023-04-18T00:39:59.378Z,0.60
2023-04-18T00:42:26.147Z,0.46
2023-04-18T00:44:52.895Z,0.39
2023-04-18T00:47:21.105Z,0.47
2023-04-18T00:49:48.619Z,0.43
2023-04-18T00:52:16.415Z,0.64
2023-04-18T00:54:43.658Z,0.51
2023-04-18T00:57:10.813Z,0.48
2023-04-18T00:59:38.558Z,0.55
2023-04-18T01:02:05.427Z,0.46
2023-04-18T01:04:33.777Z,0.48
2023-04-18T01:07:01.611Z,0.53
2023-04-18T01:09:28.699Z,1.10
2023-04-18T01:11:55.548Z,0.89
2023-04-18T01:14:22.778Z,0.71
2023-04-18T01:16:49.523Z,0.62
2023-04-18T01:19:16.633Z,0.84
2023-04-18T01:21:44.803Z,0.76
2023-04-18T01:24:14.914Z,0.63
2023-04-18T01:26:43.600Z,0.64
2023-04-18T01:29:11.269Z,0.67
2023-04-18T01:31:38.734Z,0.57
2023-04-18T01:34:06.513Z,0.49
2023-04-18T01:36:34.126Z,0.49
2023-04-18T01:39:01.017Z,0.45
2023-04-18T01:41:29.304Z,0.58
2023-04-18T01:43:56.119Z,0.45
2023-04-18T01:46:22.902Z,0.45
2023-04-18T01:48:49.663Z,0.47
2023-04-18T01:51:16.485Z,0.53
2023-04-18T01:53:43.193Z,0.70
2023-04-18T01:56:10.122Z,0.73
2023-04-18T01:58:38.531Z,0.71
2023-04-18T02:01:05.335Z,0.61
2023-04-18T02:03:32.340Z,0.49
2023-04-18T02:06:00.772Z,0.40
2023-04-18T02:08:27.533Z,0.40
2023-04-18T02:10:54.303Z,0.40
2023-04-18T02:13:21.140Z,0.41
2023-04-18T02:15:49.320Z,0.36
2023-04-18T02:18:16.473Z,0.33
2023-04-18T02:20:43.291Z,0.36
2023-04-18T02:23:10.045Z,0.49
2023-04-18T02:25:36.896Z,0.44
2023-04-18T02:28:03.808Z,0.47
2023-04-18T02:30:30.549Z,0.67
2023-04-18T02:32:58.758Z,0.49
2023-04-18T02:35:27.008Z,0.45
2023-04-18T02:37:53.971Z,0.47
2023-04-18T02:40:20.708Z,0.50
2023-04-18T02:42:47.662Z,0.41
2023-04-18T02:45:14.564Z,0.39
2023-04-18T02:47:51.721Z,0.36
2023-04-18T02:50:23.416Z,0.42
2023-04-18T02:52:50.223Z,0.37
2023-04-18T02:55:17.317Z,0.34
2023-04-18T02:57:44.185Z,0.32
2023-04-18T03:00:12.310Z,0.27
2023-04-18T03:02:39.202Z,0.44
2023-04-18T03:05:06.589Z,0.38
2023-04-18T03:07:34.901Z,0.37
2023-04-18T03:10:01.667Z,0.35
2023-04-18T03:12:28.613Z,0.37
2023-04-18T03:14:55.352Z,0.34
2023-04-18T03:17:22.547Z,0.28
2023-04-18T03:19:49.309Z,0.37
2023-04-18T03:22:16.395Z,0.40
2023-04-18T03:24:44.589Z,0.43
2023-04-18T03:27:12.520Z,0.71
2023-04-18T03:29:39.343Z,5.16
2023-04-18T03:32:06.065Z,9.62
2023-04-18T03:34:32.873Z,7.37
2023-04-18T03:36:59.757Z,4.28
2023-04-18T03:39:26.540Z,2.69
2023-04-18T03:41:54.725Z,2.30
2023-04-18T03:44:21.489Z,1.36
2023-04-18T03:46:48.274Z,0.87
2023-04-18T03:49:15.023Z,0.55
2023-04-18T03:51:43.865Z,0.45
2023-04-18T03:54:11.003Z,0.43
2023-04-18T03:56:37.920Z,0.38
2023-04-18T03:59:06.149Z,9.25
2023-04-18T04:01:33.030Z,5.81
2023-04-18T04:04:00.402Z,3.28
2023-04-18T04:06:27.297Z,1.98
2023-04-18T04:08:54.158Z,1.19
2023-04-18T04:11:20.936Z,0.92
2023-04-18T04:13:47.733Z,0.63
2023-04-18T04:16:16.009Z,0.71
2023-04-18T04:18:42.780Z,0.57
2023-04-18T04:21:09.599Z,0.55
2023-04-18T04:23:36.358Z,0.50
2023-04-18T04:26:03.276Z,0.45
2023-04-18T04:28:30.283Z,0.43
2023-04-18T04:30:58.025Z,0.41
2023-04-18T04:33:26.812Z,0.37
2023-04-18T04:35:54.283Z,0.42
2023-04-18T04:38:21.588Z,0.56
2023-04-18T04:40:49.054Z,0.48
2023-04-18T04:43:16.393Z,0.49
2023-04-18T04:45:43.904Z,0.50
2023-04-18T04:48:11.581Z,0.45
2023-04-18T04:50:41.186Z,0.43
2023-04-18T04:53:08.125Z,0.37
2023-04-18T04:55:34.931Z,0.40
2023-04-18T04:58:01.656Z,0.49
2023-04-18T05:00:28.397Z,0.45
2023-04-18T05:02:56.474Z,0.42
2023-04-18T05:05:23.572Z,0.87
2023-04-18T05:07:51.834Z,0.96
2023-04-18T05:10:19.151Z,0.70
2023-04-18T05:12:46.052Z,0.51
2023-04-18T05:15:14.105Z,0.41
2023-04-18T05:17:41.014Z,0.36
2023-04-18T05:20:08.973Z,0.35
2023-04-18T05:22:36.047Z,0.47
2023-04-18T05:25:05.099Z,0.60
2023-04-18T05:27:31.912Z,0.58
2023-04-18T05:29:58.643Z,0.45
2023-04-18T05:32:25.978Z,0.54
2023-04-18T05:34:52.800Z,0.49
2023-04-18T05:37:19.547Z,0.43
2023-04-18T05:39:46.313Z,0.38
2023-04-18T05:42:14.504Z,0.39
2023-04-18T05:44:41.321Z,0.50
2023-04-18T05:47:08.149Z,0.51
2023-04-18T05:49:35.259Z,0.44
2023-04-18T05:52:02.081Z,0.43
2023-04-18T05:54:28.860Z,0.75
2023-04-18T05:56:55.605Z,0.54
2023-04-18T05:59:25.545Z,1.65
2023-04-18T06:01:52.514Z,1.18
2023-04-18T06:04:20.994Z,0.96
2023-04-18T06:06:48.164Z,0.65
2023-04-18T06:09:14.898Z,0.44
2023-04-18T06:11:41.709Z,0.37
2023-04-18T06:14:08.590Z,0.43
2023-04-18T06:16:37.829Z,0.54
2023-04-18T06:19:05.235Z,0.81
2023-04-18T06:21:32.218Z,0.89
2023-04-18T06:23:59.545Z,0.75
2023-04-18T06:26:26.860Z,0.68
2023-04-18T06:28:54.864Z,0.60
2023-04-18T06:31:26.894Z,0.51
2023-04-18T06:33:56.218Z,0.41
2023-04-18T06:36:23.554Z,0.36
2023-04-18T06:38:53.234Z,0.33
2023-04-18T06:41:20.198Z,0.32
2023-04-18T06:44:02.132Z,0.31
2023-04-18T06:46:31.848Z,0.33
2023-04-18T06:49:00.533Z,0.62
2023-04-18T06:51:27.745Z,0.55
2023-04-18T06:53:55.510Z,0.44
2023-04-18T06:56:22.918Z,0.52
2023-04-18T06:58:50.765Z,0.50
2023-04-18T07:01:17.753Z,0.45
2023-04-18T07:03:44.933Z,0.56
2023-04-18T07:06:13.576Z,0.53
2023-04-18T07:08:40.422Z,0.52
2023-04-18T07:11:07.402Z,0.59
2023-04-18T07:13:34.325Z,0.58
2023-04-18T07:16:01.436Z,0.59
2023-04-18T07:18:37.305Z,0.56
2023-04-18T07:21:05.253Z,0.44
2023-04-18T07:23:33.442Z,0.42
2023-04-18T07:26:00.491Z,0.59
2023-04-18T07:28:27.368Z,0.63
2023-04-18T07:30:55.540Z,0.47
2023-04-18T07:33:22.668Z,0.49
2023-04-18T07:35:50.309Z,0.45
2023-04-18T07:38:17.328Z,0.48
2023-04-18T07:40:46.182Z,0.41
2023-04-18T07:43:13.260Z,0.45
2023-04-18T07:45:40.115Z,0.48
2023-04-18T07:48:07.152Z,0.41
2023-04-18T07:50:34.018Z,0.36
2023-04-18T07:53:02.920Z,0.28
2023-04-18T07:55:30.062Z,0.29
2023-04-18T07:57:58.295Z,0.30
2023-04-18T08:00:25.154Z,0.31
2023-04-18T08:02:52.189Z,0.25
2023-04-18T08:05:20.175Z,0.27
2023-04-18T08:07:47.041Z,0.26
2023-04-18T08:10:13.815Z,0.28
2023-04-18T08:12:40.721Z,0.29
2023-04-18T08:15:10.121Z,0.25
2023-04-18T08:17:37.072Z,0.26
2023-04-18T08:20:04.821Z,0.29
2023-04-18T08:22:31.649Z,0.30
2023-04-18T08:25:04.836Z,0.30
2023-04-18T08:29:59.365Z,0.30
2023-04-18T08:32:27.649Z,0.30
2023-04-18T08:34:55.676Z,0.32
2023-04-18T08:37:22.421Z,0.31
2023-04-18T08:39:49.783Z,0.31
2023-04-18T08:42:18.079Z,0.30
2023-04-18T08:44:45.689Z,5.06
2023-04-18T08:47:12.748Z,5.47
2023-04-18T08:49:41.195Z,3.54
2023-04-18T08:52:10.788Z,2.36
2023-04-18T08:54:37.611Z,1.50
2023-04-18T08:57:05.350Z,0.91
2023-04-18T08:59:32.201Z,0.57
2023-04-18T09:01:59.260Z,0.45
2023-04-18T09:04:34.063Z,0.38
2023-04-18T09:07:03.402Z,0.29
2023-04-18T09:09:40.927Z,0.25
2023-04-18T09:12:09.321Z,0.23
2023-04-18T09:14:37.538Z,0.23
2023-04-18T09:17:04.881Z,0.22
2023-04-18T09:19:31.909Z,0.21
2023-04-18T09:22:00.174Z,0.30
2023-04-18T09:24:29.086Z,0.36
2023-04-18T09:26:57.528Z,0.28
2023-04-18T09:29:42.506Z,0.24
2023-04-18T09:32:10.223Z,0.22
2023-04-18T09:34:41.804Z,0.21
2023-04-18T09:37:10.661Z,0.21
2023-04-18T09:39:40.350Z,0.18
2023-04-18T09:42:08.235Z,0.19
2023-04-18T09:44:38.151Z,0.20
2023-04-18T09:47:06.464Z,0.20
2023-04-18T09:49:33.388Z,0.20
2023-04-18T09:52:06.247Z,0.20
2023-04-18T09:54:37.459Z,0.15
2023-04-18T09:57:10.910Z,0.17
2023-04-18T09:59:51.248Z,0.15
2023-04-18T10:02:21.747Z,0.17
2023-04-18T10:04:50.002Z,0.14
2023-04-18T10:07:17.497Z,0.12
2023-04-18T10:09:46.010Z,0.14
2023-04-18T10:12:15.783Z,0.12
2023-04-18T10:14:43.192Z,0.11
2023-04-18T10:17:10.559Z,0.11
2023-04-18T10:19:38.692Z,0.15
2023-04-18T10:22:05.558Z,2.87
2023-04-18T10:24:49.410Z,1.77
2023-04-18T10:27:18.273Z,1.08
2023-04-18T10:29:49.445Z,0.78
2023-04-18T10:32:16.625Z,0.55
2023-04-18T10:34:43.909Z,0.39
2023-04-18T10:37:10.686Z,0.45
2023-04-18T10:39:55.945Z,0.33
2023-04-18T10:42:55.980Z,0.27
2023-04-18T10:45:25.325Z,0.28
2023-04-18T10:48:22.401Z,1.05
2023-04-18T10:51:14.731Z,0.65
2023-04-18T10:53:47.930Z,0.53
2023-04-18T10:56:15.379Z,0.44
2023-04-18T10:58:48.277Z,1.50
2023-04-18T11:01:24.813Z,0.89
2023-04-18T11:03:52.118Z,0.57
2023-04-18T11:06:19.341Z,0.35
2023-04-18T11:08:46.565Z,0.27
2023-04-18T11:11:13.726Z,0.19
2023-04-18T11:13:54.807Z,0.15
2023-04-18T11:16:30.481Z,0.13
2023-04-18T11:18:58.737Z,0.11
2023-04-18T11:21:26.924Z,0.11
2023-04-18T11:23:55.905Z,0.15
2023-04-18T11:26:24.869Z,0.17
2023-04-18T11:28:52.331Z,0.11
2023-04-18T11:31:22.858Z,0.11
2023-04-18T11:33:51.274Z,0.06
2023-04-18T11:36:18.134Z,0.04
2023-04-18T11:38:44.985Z,0.02
2023-04-18T11:41:15.176Z,0.06
2023-04-18T11:43:46.106Z,0.03
2023-04-18T11:46:13.595Z,0.06
2023-04-18T11:48:41.948Z,0.03
2023-04-18T11:51:31.224Z,0.11
2023-04-18T11:53:58.141Z,0.06
2023-04-18T11:56:24.995Z,0.08
2023-04-18T11:58:51.948Z,0.14
2023-04-18T12:01:20.681Z,0.11
2023-04-18T12:04:00.443Z,0.06
2023-04-18T12:06:45.570Z,0.03
2023-04-18T12:09:13.647Z,0.06
2023-04-18T12:11:41.281Z,0.08
2023-04-18T12:14:18.431Z,0.09
2023-04-18T12:16:45.557Z,0.09
2023-04-18T12:19:12.392Z,0.10
2023-04-18T12:21:57.032Z,0.10
2023-04-18T12:24:26.923Z,0.10
2023-04-18T12:27:01.922Z,0.10
2023-04-18T12:29:29.257Z,0.10
2023-04-18T12:31:56.158Z,0.10
2023-04-18T12:34:23.011Z,0.16
2023-04-18T12:36:49.816Z,0.13
2023-04-18T12:39:17.954Z,0.12
2023-04-18T12:41:44.711Z,0.11
2023-04-18T12:44:11.582Z,0.08
2023-04-18T12:46:38.626Z,0.09
2023-04-18T12:49:05.458Z,0.10
2023-04-18T12:51:32.179Z,0.10
2023-04-18T12:53:59.221Z,0.10
2023-04-18T12:56:27.411Z,0.10
2023-04-18T12:58:54.251Z,0.15
2023-04-18T13:01:21.421Z,0.12
2023-04-18T13:03:56.264Z,0.11
2023-04-18T13:06:32.759Z,0.11
2023-04-18T13:08:59.581Z,0.07
2023-04-18T13:11:27.805Z,0.08
2023-04-18T13:13:55.235Z,0.09
2023-04-18T13:16:22.137Z,0.10
2023-04-18T13:18:49.063Z,0.14
2023-04-18T13:21:16.023Z,0.12
2023-04-18T13:23:42.857Z,0.15
2023-04-18T13:26:09.780Z,0.12
2023-04-18T13:28:38.069Z,0.12
2023-04-18T13:31:05.201Z,0.11
2023-04-18T13:33:32.123Z,0.11
2023-04-18T13:35:59.239Z,0.13
2023-04-18T13:38:27.693Z,0.14
2023-04-18T13:41:08.396Z,0.12
2023-04-18T13:43:40.321Z,0.11
2023-04-18T13:46:07.757Z,0.11
2023-04-18T13:48:34.543Z,0.10
2023-04-18T13:51:02.009Z,0.14
2023-04-18T13:53:30.713Z,0.12
2023-04-18T13:55:58.041Z,0.16
2023-04-18T13:58:24.850Z,0.13
2023-04-18T14:00:53.224Z,0.12
2023-04-18T14:03:20.084Z,0.11
2023-04-18T14:05:46.944Z,0.10
2023-04-18T14:08:13.751Z,0.11
2023-04-18T14:10:40.794Z,0.10
2023-04-18T14:13:07.573Z,0.10
2023-04-18T14:15:34.787Z,0.10
2023-04-18T14:18:03.001Z,0.10
2023-04-18T14:20:29.956Z,0.10
2023-04-18T14:22:57.227Z,0.19
2023-04-18T14:25:24.186Z,0.15
2023-04-18T14:28:04.130Z,0.12
2023-04-18T14:30:30.902Z,0.12
2023-04-18T14:32:57.800Z,0.16
2023-04-18T14:35:26.116Z,0.13
2023-04-18T14:37:52.987Z,0.12
2023-04-18T14:40:20.145Z,0.11
2023-04-18T14:42:46.932Z,0.10
2023-04-18T14:45:13.983Z,0.10
2023-04-18T14:47:40.788Z,0.10
2023-04-18T14:50:09.207Z,0.15
2023-04-18T14:52:38.548Z,0.17
2023-04-18T14:55:06.242Z,0.17
2023-04-18T14:57:35.101Z,0.13
2023-04-18T15:00:02.527Z,0.12
2023-04-18T15:02:29.646Z,0.16
2023-04-18T15:04:57.051Z,0.16
2023-04-18T15:07:24.018Z,0.13
2023-04-18T15:09:52.250Z,0.12
2023-04-18T15:12:19.046Z,0.11
2023-04-18T15:14:45.828Z,0.10
2023-04-18T15:17:12.703Z,0.10
2023-04-18T15:19:39.459Z,0.10
2023-04-18T15:22:06.245Z,0.10
2023-04-18T15:24:33.027Z,0.11
2023-04-18T15:27:01.181Z,0.15
2023-04-18T15:29:27.987Z,0.18
2023-04-18T15:31:54.781Z,0.19
2023-04-18T15:34:21.629Z,0.20
2023-04-18T15:36:48.418Z,0.19
2023-04-18T15:39:17.347Z,0.20
2023-04-18T15:41:44.169Z,0.16
2023-04-18T15:44:12.458Z,0.18
2023-04-18T15:46:39.435Z,0.19
2023-04-18T15:49:06.212Z,0.19
2023-04-18T15:51:33.150Z,0.20
2023-04-18T15:53:59.956Z,0.20
2023-04-18T15:56:26.843Z,0.20
2023-04-18T15:58:56.465Z,0.32
2023-04-18T16:01:24.692Z,0.24
2023-04-18T16:03:51.589Z,0.22
2023-04-18T16:06:19.278Z,0.16
2023-04-18T16:08:46.017Z,0.18
2023-04-18T16:11:12.814Z,0.19
2023-04-18T16:13:39.542Z,0.18
2023-04-18T16:16:06.876Z,0.19
2023-04-18T16:18:35.055Z,0.19
2023-04-18T16:21:01.938Z,0.20
2023-04-18T16:23:30.716Z,0.20
2023-04-18T16:25:57.521Z,0.20
2023-04-18T16:28:24.242Z,0.86
2023-04-18T16:30:51.675Z,0.64
2023-04-18T16:33:19.860Z,0.73
2023-04-18T16:35:48.005Z,0.48
2023-04-18T16:38:14.845Z,0.40
2023-04-18T16:40:41.630Z,0.71
2023-04-18T16:43:08.434Z,0.42
2023-04-18T16:45:35.221Z,0.29
2023-04-18T16:48:02.007Z,0.20
2023-04-18T16:50:29.075Z,0.15
2023-04-18T16:52:57.303Z,0.13
2023-04-18T16:55:24.224Z,0.12
2023-04-18T16:57:51.039Z,0.11
2023-04-18T17:00:18.145Z,0.23
2023-04-18T17:02:45.045Z,0.17
2023-04-18T17:05:12.014Z,0.14
2023-04-18T17:07:38.750Z,0.12
2023-04-18T17:10:09.921Z,0.11
2023-04-18T17:12:36.987Z,0.23
2023-04-18T17:15:04.436Z,0.17
2023-04-18T17:17:31.243Z,0.14
2023-04-18T17:19:58.040Z,0.17
2023-04-18T17:22:24.842Z,0.18
2023-04-18T17:24:51.565Z,0.20
2023-04-18T17:27:19.870Z,0.20
2023-04-18T17:29:46.637Z,0.15
2023-04-18T17:32:13.405Z,0.13
2023-04-18T17:34:40.296Z,0.11
2023-04-18T17:37:07.198Z,0.13
2023-04-18T17:39:33.968Z,0.11
2023-04-18T17:42:00.690Z,0.11
2023-04-18T17:44:29.150Z,0.10
2023-04-18T17:46:55.982Z,0.10
2023-04-18T17:49:22.805Z,0.10
2023-04-18T17:51:49.502Z,0.10
2023-04-18T17:54:16.236Z,0.10
2023-04-18T17:56:44.088Z,0.10
2023-04-18T17:59:10.830Z,0.10
2023-04-18T18:01:39.661Z,0.10
2023-04-18T18:04:06.642Z,0.10
2023-04-18T18:06:33.449Z,0.10
2023-04-18T18:09:00.305Z,0.45
2023-04-18T18:11:27.131Z,0.62
2023-04-18T18:13:53.949Z,0.42
2023-04-18T18:16:20.750Z,0.40
2023-04-18T18:18:48.894Z,0.31
2023-04-18T18:21:15.724Z,0.29
2023-04-18T18:23:42.651Z,0.28
2023-04-18T18:26:09.443Z,0.30
2023-04-18T18:28:36.199Z,0.45
2023-04-18T18:31:03.615Z,0.37
2023-04-18T18:33:30.418Z,0.29
2023-04-18T18:35:59.507Z,0.47
2023-04-18T18:38:26.257Z,0.30
2023-04-18T18:40:53.077Z,0.21
2023-04-18T18:43:19.916Z,0.16
2023-04-18T18:45:46.747Z,0.18
2023-04-18T18:48:13.556Z,0.14
2023-04-18T18:50:40.352Z,0.12
2023-04-18T18:53:08.483Z,0.11
2023-04-18T18:55:35.233Z,0.10
2023-04-18T18:58:02.028Z,0.10
2023-04-18T19:00:28.828Z,0.10
2023-04-18T19:02:55.693Z,0.11
2023-04-18T19:05:22.738Z,0.11
2023-04-18T19:07:49.460Z,0.14
2023-04-18T19:10:17.784Z,0.12
2023-04-18T19:12:44.651Z,0.11
2023-04-18T19:15:12.379Z,0.15
2023-04-18T19:17:39.232Z,0.13
2023-04-18T19:20:07.523Z,0.07
2023-04-18T19:22:34.240Z,0.05
2023-04-18T19:25:01.076Z,0.03
2023-04-18T19:27:29.340Z,0.06
2023-04-18T19:29:56.208Z,0.03
2023-04-18T19:32:23.049Z,0.02
2023-04-18T19:34:49.921Z,0.01
2023-04-18T19:37:16.771Z,0.00
2023-04-18T19:39:43.540Z,0.00
2023-04-18T19:42:10.401Z,0.00
2023-04-18T19:44:38.654Z,0.00
2023-04-18T19:47:05.457Z,0.00
2023-04-18T19:49:32.259Z,0.00
2023-04-18T19:51:59.014Z,0.09
2023-04-18T19:54:25.858Z,0.05
2023-04-18T19:56:52.652Z,0.03
2023-04-18T19:59:19.411Z,0.01
2023-04-18T20:01:47.618Z,0.05
2023-04-18T20:04:14.531Z,0.03
2023-04-18T20:06:41.429Z,0.02
2023-04-18T20:09:08.198Z,0.06
2023-04-18T20:11:34.931Z,0.03
2023-04-18T20:14:02.099Z,0.02
2023-04-18T20:16:28.969Z,0.01
2023-04-18T20:18:57.142Z,0.03
2023-04-18T20:21:23.955Z,0.02
2023-04-18T20:23:50.709Z,0.01
2023-04-18T20:26:17.523Z,0.00
2023-04-18T20:28:44.278Z,0.00
2023-04-18T20:31:11.674Z,0.00
2023-04-18T20:33:38.453Z,0.00
2023-04-18T20:36:06.971Z,0.00
2023-04-18T20:38:33.838Z,0.00
2023-04-18T20:41:00.725Z,0.15
2023-04-18T20:43:28.439Z,0.08
2023-04-18T20:45:55.300Z,0.09
2023-04-18T20:48:22.034Z,0.05
2023-04-18T20:50:48.922Z,0.03
2023-04-18T20:53:17.198Z,0.02
2023-04-18T20:55:43.931Z,0.06
2023-04-18T20:58:10.681Z,0.19
2023-04-18T21:00:37.541Z,0.52
2023-04-18T21:03:04.547Z,0.38
2023-04-18T21:05:32.452Z,0.24
2023-04-18T21:08:01.832Z,0.17
2023-04-18T21:10:30.155Z,0.14
2023-04-18T21:12:57.050Z,0.12
2023-04-18T21:15:23.800Z,0.11
2023-04-18T21:17:50.746Z,0.15
2023-04-18T21:20:17.710Z,0.18
2023-04-18T21:22:44.571Z,0.14
2023-04-18T21:25:11.399Z,0.12
2023-04-18T21:27:39.537Z,0.26
2023-04-18T21:30:07.532Z,0.23
2023-04-18T21:32:34.332Z,0.17
2023-04-18T21:35:01.133Z,0.14
2023-04-18T21:37:28.022Z,0.14
2023-04-18T21:39:55.038Z,0.20
2023-04-18T21:42:21.912Z,0.15
2023-04-18T21:44:50.073Z,0.13
2023-04-18T21:47:16.935Z,0.12
2023-04-18T21:49:43.668Z,0.21
2023-04-18T21:52:10.842Z,0.16
2023-04-18T21:54:37.589Z,0.15
2023-04-18T21:57:04.465Z,0.12
2023-04-18T21:59:31.262Z,0.11
2023-04-18T22:01:59.518Z,0.15
2023-04-18T22:04:26.672Z,0.13
2023-04-18T22:06:53.897Z,0.12
2023-04-18T22:09:20.971Z,0.06
2023-04-18T22:11:47.833Z,0.10
2023-04-18T22:14:14.988Z,0.10
2023-04-18T22:16:41.881Z,0.05
2023-04-18T22:19:10.118Z,0.07
2023-04-18T22:21:36.867Z,0.04
2023-04-18T22:24:04.191Z,0.02
2023-04-18T22:26:30.946Z,0.04
2023-04-18T22:28:57.716Z,0.07
2023-04-18T22:31:24.625Z,0.04
2023-04-18T22:33:51.623Z,0.02
2023-04-18T22:36:19.831Z,0.01
2023-04-18T22:38:46.636Z,0.21
2023-04-18T22:41:13.367Z,0.11
2023-04-18T22:43:40.093Z,0.07
2023-04-18T22:46:07.028Z,0.04
2023-04-18T22:48:33.773Z,0.02
2023-04-18T22:51:00.730Z,0.03
2023-04-18T22:53:28.834Z,0.06
2023-04-18T22:55:55.653Z,0.05
2023-04-18T22:58:22.462Z,0.23
2023-04-18T23:00:49.203Z,0.31
2023-04-18T23:03:16.109Z,0.26
2023-04-18T23:05:43.031Z,0.25
2023-04-18T23:08:09.767Z,0.16
2023-04-18T23:10:38.044Z,0.13
2023-04-18T23:13:04.859Z,0.12
2023-04-18T23:15:31.679Z,0.20
2023-04-18T23:17:58.434Z,0.42
2023-04-18T23:20:25.171Z,0.39
2023-04-18T23:22:52.027Z,0.25
2023-04-18T23:25:19.057Z,0.18
2023-04-18T23:27:47.367Z,0.20
2023-04-18T23:30:14.270Z,1.15
2023-04-18T23:32:41.111Z,0.77
2023-04-18T23:35:08.688Z,0.55
2023-04-18T23:37:35.446Z,0.48
2023-04-18T23:40:02.208Z,0.77
2023-04-18T23:42:29.017Z,0.66
2023-04-18T23:44:57.103Z,0.69
2023-04-18T23:47:23.995Z,0.54
2023-04-18T23:49:50.768Z,0.51
2023-04-18T23:52:17.601Z,0.51
2023-04-18T23:54:44.347Z,0.36
2023-04-18T23:57:11.082Z,0.28
2023-04-18T23:59:37.872Z,0.19
